GLR weather

Gaylord Regional Airport
Gaylord, Michigan, United States

Public forecast

Using degrees Fahrenheit for public forecast. Weather courtesy of forecast.io.

METAR (pilot weather report)

Retrieved 2019/06/27 04:53 UTC (38 minutes ago):

KGLR 270453Z AUTO 24004KT 10SM CLR 17/13 A3012 RMK AO2 SLP194 T01720128 402610144

TAF (pilot weather forecast)

Forecast is more than 12 hours old.

Closest forecast is Pellston Regional Airport of Emmet County Airport, 33.7 nm (62.4 km) N. Retrieved 2019/06/26 00:22 UTC (1 day ago):

TAF KPLN 262320Z 2700/2724 25008G15KT P6SM FEW050 FEW250 FM270200 26005KT P6SM FEW250 FM271700 24007KT P6SM BKN250 FM272300 26009KT P6SM BKN200